Time;durP1;ratioP1;P1;durP2;ratioP2;P2;SDS_P1;SDS_P2;PMS_P1;PMS_P2;Temp;Humidity;BMP_temperature;BMP_pressure;BME280_temperature;BME280_humidity;BME280_pressure;Samples;Min_cycle;Max_cycle;Signal;HPM_P1;HPM_P2
2023/09/21 00:04:01;;;;;;;8.30;5.10;;;;;;;16.89;75.41;98819.61;232719;214;140305;-59
2023/09/21 00:09:05;;;;;;;6.50;4.10;;;;;;;16.83;75.35;98816.79;232624;214;137017;-59
2023/09/21 00:14:09;;;;;;;10.30;4.50;;;;;;;16.77;75.49;98815.30;232629;214;147053;-59
2023/09/21 00:19:16;;;;;;;9.70;5.10;;;;;;;16.78;75.49;98808.77;232731;214;139588;-60
2023/09/21 00:24:21;;;;;;;12.60;5.50;;;;;;;16.81;75.23;98805.79;232763;214;138328;-59
2023/09/21 00:29:26;;;;;;;7.70;5.00;;;;;;;16.76;74.99;98801.98;232704;214;146502;-57
2023/09/21 00:34:34;;;;;;;8.90;5.00;;;;;;;16.70;75.02;98800.55;232646;214;139099;-58
2023/09/21 00:39:39;;;;;;;9.70;4.70;;;;;;;16.62;75.17;98796.58;232716;214;137837;-59
2023/09/21 00:44:46;;;;;;;7.90;4.60;;;;;;;16.53;75.16;98797.21;232589;214;144570;-57
2023/09/21 00:49:51;;;;;;;10.20;5.00;;;;;;;16.48;75.16;98788.77;232844;214;139366;-58
2023/09/21 00:54:55;;;;;;;10.00;4.90;;;;;;;16.47;75.21;98791.31;232836;214;138723;-55
2023/09/21 01:00:00;;;;;;;12.50;4.60;;;;;;;16.53;74.93;98792.23;232616;214;145568;-58
2023/09/21 01:05:06;;;;;;;7.60;4.30;;;;;;;16.50;74.95;98782.42;232682;214;139000;-57
2023/09/21 01:10:14;;;;;;;10.00;4.10;;;;;;;16.46;74.99;98781.59;232678;214;140341;-57
2023/09/21 01:15:20;;;;;;;11.60;5.00;;;;;;;16.41;75.01;98778.67;232626;214;147763;-58
2023/09/21 01:20:32;;;;;;;6.30;3.60;;;;;;;16.32;75.15;98776.74;232633;214;139037;-57
2023/09/21 01:25:41;;;;;;;9.00;4.30;;;;;;;16.25;75.32;98775.61;232814;214;138202;-57
2023/09/21 01:30:51;;;;;;;9.20;4.10;;;;;;;16.22;75.49;98772.02;232694;214;146335;-58
2023/09/21 01:35:56;;;;;;;7.60;4.00;;;;;;;16.26;75.47;98765.98;232648;214;138977;-57
2023/09/21 01:41:04;;;;;;;7.90;4.00;;;;;;;16.23;75.41;98761.98;232655;214;137768;-59
2023/09/21 01:46:12;;;;;;;8.70;4.30;;;;;;;16.18;75.54;98754.52;232618;214;147354;-62
2023/09/21 01:51:18;;;;;;;9.30;4.80;;;;;;;16.12;75.75;98755.48;232668;214;140428;-60
2023/09/21 01:56:22;;;;;;;11.50;3.80;;;;;;;16.06;75.97;98747.61;232861;215;136996;-59
2023/09/21 02:01:27;;;;;;;7.20;3.80;;;;;;;16.02;76.02;98743.61;232817;214;147292;-59
2023/09/21 02:06:32;;;;;;;8.20;4.00;;;;;;;16.02;76.02;98744.67;232592;214;139153;-61
2023/09/21 02:11:36;;;;;;;7.40;3.90;;;;;;;16.04;75.86;98744.38;232707;214;138015;-61
2023/09/21 02:16:41;;;;;;;9.10;4.10;;;;;;;16.02;75.93;98741.10;232601;214;148522;-60
2023/09/21 02:21:46;;;;;;;8.00;4.40;;;;;;;16.00;75.96;98740.19;232614;214;139315;-59
2023/09/21 02:26:51;;;;;;;8.80;4.10;;;;;;;15.97;75.98;98733.31;232863;215;137191;-61
2023/09/21 02:31:56;;;;;;;7.10;4.10;;;;;;;15.95;75.88;98726.04;232827;214;148829;-58
2023/09/21 02:37:01;;;;;;;10.20;4.20;;;;;;;15.90;76.01;98723.44;232494;214;138805;-62
2023/09/21 02:42:08;;;;;;;9.10;3.90;;;;;;;15.93;76.17;98718.81;232711;214;138670;-62
2023/09/21 02:47:14;;;;;;;6.30;3.90;;;;;;;15.99;75.93;98718.09;232622;214;147401;-60
2023/09/21 02:52:21;;;;;;;8.40;4.20;;;;;;;15.96;76.01;98719.44;232579;214;138782;-60
2023/09/21 02:57:27;;;;;;;;;;;;;;;15.93;76.06;98720.98;232657;212;137400;-59
2023/09/21 03:02:32;;;;;;;9.00;4.30;;;;;;;15.89;75.94;98721.57;232672;214;147567;-60
2023/09/21 03:07:43;;;;;;;8.80;3.60;;;;;;;15.82;76.07;98716.77;232818;215;139000;-60
2023/09/21 03:12:51;;;;;;;9.90;4.00;;;;;;;15.83;76.22;98710.44;232802;214;138573;-60
2023/09/21 03:17:58;;;;;;;9.90;4.30;;;;;;;15.85;76.22;98712.77;232649;214;150529;-59
2023/09/21 03:23:09;;;;;;;11.20;3.80;;;;;;;15.90;76.29;98706.62;232513;215;138879;-59
2023/09/21 03:28:15;;;;;;;7.50;4.30;;;;;;;15.92;76.38;98706.98;232606;214;137910;-59
2023/09/21 03:33:22;;;;;;;9.00;4.50;;;;;;;15.91;76.71;98711.48;232635;214;147602;-59
2023/09/21 03:38:27;;;;;;;9.20;4.10;;;;;;;15.94;77.06;98705.38;232722;215;139354;-61
2023/09/21 03:43:33;;;;;;;7.80;4.10;;;;;;;15.99;76.92;98698.48;232887;214;138811;-58
2023/09/21 03:48:38;;;;;;;8.70;3.90;;;;;;;16.06;77.13;98696.30;232747;214;149469;-59
2023/09/21 03:53:44;;;;;;;6.70;4.20;;;;;;;16.12;76.91;98690.68;232762;214;138870;-59
2023/09/21 03:58:51;;;;;;;7.70;4.20;;;;;;;16.12;76.60;98686.17;232728;215;138057;-59
2023/09/21 04:04:04;;;;;;;9.90;4.70;;;;;;;16.10;76.75;98680.80;232759;215;148142;-59
2023/09/21 04:09:12;;;;;;;7.80;4.20;;;;;;;16.07;76.82;98681.59;232682;215;139546;-59
2023/09/21 04:14:17;;;;;;;;;;;;;;;16.03;76.47;98678.26;233017;214;137133;-60
2023/09/21 04:19:22;;;;;;;7.60;4.30;;;;;;;16.01;76.37;98682.14;234869;214;148394;-60
2023/09/21 04:24:25;;;;;;;7.20;4.20;;;;;;;16.07;76.22;98681.77;234523;215;138943;-60
2023/09/21 04:29:28;;;;;;;7.60;4.40;;;;;;;16.03;76.15;98679.13;234509;214;138328;-61
2023/09/21 04:34:31;;;;;;;10.50;4.30;;;;;;;16.02;76.11;98676.16;234610;215;147324;-63
2023/09/21 04:39:35;;;;;;;7.40;3.80;;;;;;;16.01;76.20;98677.35;234636;214;138867;-62
2023/09/21 04:44:38;;;;;;;9.00;3.90;;;;;;;16.02;76.01;98671.30;234703;214;138056;-63
2023/09/21 04:49:42;;;;;;;10.80;4.50;;;;;;;16.07;75.82;98674.14;234762;215;148520;-62
2023/09/21 04:54:49;;;;;;;8.40;4.50;;;;;;;16.09;75.61;98672.99;234629;215;139322;-63
2023/09/21 04:59:52;;;;;;;8.60;4.60;;;;;;;16.11;75.67;98677.85;234620;215;136578;-62
2023/09/21 05:10:14;;;;;;;11.20;4.40;;;;;;;16.13;75.92;98672.29;231479;224;723619;-61
2023/09/21 05:15:18;;;;;;;9.70;4.50;;;;;;;16.10;76.11;98671.65;232942;216;137742;-63
2023/09/21 05:20:24;;;;;;;8.50;4.50;;;;;;;16.16;76.41;98668.08;232798;215;144080;-59
2023/09/21 05:25:28;;;;;;;221.40;193.30;;;;;;;16.23;76.76;98664.95;232916;216;138721;-59
2023/09/21 05:30:34;;;;;;;18.90;13.50;;;;;;;16.35;77.02;98660.80;232787;215;137678;-62
2023/09/21 05:35:40;;;;;;;8.30;5.30;;;;;;;16.45;76.98;98662.98;232930;216;143884;-62
2023/09/21 05:40:45;;;;;;;;;;;;;;;16.54;76.94;98667.98;232930;216;138883;-61
2023/09/21 05:45:50;;;;;;;16.90;7.90;;;;;;;16.62;76.91;98662.66;232955;215;129298;-61
2023/09/21 05:50:55;;;;;;;14.10;6.00;;;;;;;16.72;76.87;98660.92;232855;216;143745;-59
2023/09/21 05:56:04;;;;;;;10.00;5.70;;;;;;;17.15;79.17;98661.52;233019;215;139584;-61
2023/09/21 06:01:08;;;;;;;14.20;5.20;;;;;;;17.83;77.35;98660.77;232884;215;138294;-61
2023/09/21 06:06:14;;;;;;;33.70;23.50;;;;;;;18.02;74.99;98656.60;232883;216;145650;-61
2023/09/21 06:11:18;;;;;;;10.20;6.10;;;;;;;17.81;74.83;98652.40;232768;216;141533;-63
2023/09/21 06:16:23;;;;;;;13.50;5.80;;;;;;;17.74;75.18;98657.70;232864;216;138051;-60
2023/09/21 06:21:29;;;;;;;11.70;5.90;;;;;;;17.76;75.65;98651.42;232903;216;145446;-62
2023/09/21 06:26:35;;;;;;;18.40;7.40;;;;;;;17.84;75.78;98649.94;232821;216;138987;-59
2023/09/21 06:31:38;;;;;;;14.20;7.50;;;;;;;17.94;75.91;98656.52;233037;216;137523;-64
2023/09/21 06:36:44;;;;;;;15.40;7.20;;;;;;;18.03;75.90;98654.92;232741;214;149077;-64
2023/09/21 06:41:49;;;;;;;14.60;7.90;;;;;;;18.11;76.17;98657.09;232694;215;139201;-61
2023/09/21 06:46:57;;;;;;;43.50;26.20;;;;;;;18.25;75.83;98656.07;232755;214;137908;-59
2023/09/21 06:52:04;;;;;;;23.40;10.40;;;;;;;18.41;75.62;98649.30;232764;214;146116;-56
2023/09/21 06:57:08;;;;;;;25.40;10.70;;;;;;;18.61;75.29;98644.70;232750;214;138960;-58
2023/09/21 07:02:12;;;;;;;23.90;9.60;;;;;;;18.86;74.99;98636.95;232748;214;137189;-60
2023/09/21 07:07:17;;;;;;;23.00;6.90;;;;;;;18.95;74.35;98630.67;232720;214;147346;-62
2023/09/21 07:12:22;;;;;;;23.90;7.20;;;;;;;19.01;74.44;98631.68;232678;214;140331;-61
2023/09/21 07:17:27;;;;;;;596.90;511.10;;;;;;;19.11;74.38;98627.55;232725;214;136768;-61
2023/09/21 07:22:33;;;;;;;23.70;13.20;;;;;;;19.16;74.25;98634.23;232656;214;145880;-59
2023/09/21 07:27:37;;;;;;;18.80;9.00;;;;;;;19.28;73.61;98629.05;232716;214;140729;-60
2023/09/21 07:32:42;;;;;;;17.60;6.80;;;;;;;19.46;73.03;98626.13;232697;214;137291;-56
2023/09/21 07:37:49;;;;;;;23.00;6.80;;;;;;;19.54;72.73;98622.86;232780;214;145651;-60
2023/09/21 07:42:53;;;;;;;25.50;6.80;;;;;;;19.62;72.46;98616.08;232671;214;141349;-59
2023/09/21 07:47:59;;;;;;;15.50;6.30;;;;;;;19.69;72.31;98607.68;232740;214;137930;-59
2023/09/21 07:53:04;;;;;;;12.60;5.30;;;;;;;19.73;72.12;98602.00;232627;214;145443;-56
2023/09/21 07:58:09;;;;;;;;;;;;;;;19.83;72.29;98597.17;232670;214;138893;-59
2023/09/21 08:03:16;;;;;;;19.60;4.80;;;;;;;19.98;72.00;98596.37;232907;214;131096;-58
2023/09/21 08:08:25;;;;;;;14.70;5.30;;;;;;;20.17;71.87;98593.65;232892;215;148029;-59
2023/09/21 08:13:30;;;;;;;11.00;4.40;;;;;;;20.34;71.15;98588.52;232811;214;138644;-59
2023/09/21 08:18:36;;;;;;;14.70;4.50;;;;;;;20.47;70.84;98579.35;232810;215;137066;-58
2023/09/21 08:23:42;;;;;;;11.60;5.60;;;;;;;20.60;70.66;98581.22;232792;214;146580;-60
2023/09/21 08:28:47;;;;;;;;;;;;;;;20.72;70.78;98579.66;232776;214;140481;-59
2023/09/21 08:33:52;;;;;;;16.80;9.10;;;;;;;20.88;71.15;98575.70;232940;215;131092;-59
2023/09/21 08:38:58;;;;;;;32.30;13.80;;;;;;;21.02;71.14;98570.54;232801;214;145381;-59
2023/09/21 08:44:04;;;;;;;35.10;18.20;;;;;;;21.15;70.38;98569.23;232940;214;139911;-58
2023/09/21 08:49:10;;;;;;;17.60;9.90;;;;;;;21.34;69.95;98566.52;232809;215;137290;-61
2023/09/21 08:54:16;;;;;;;15.80;7.70;;;;;;;21.52;69.41;98563.41;232792;215;145971;-61
2023/09/21 08:59:22;;;;;;;15.60;6.80;;;;;;;21.69;69.06;98561.63;232815;214;138721;-59
2023/09/21 09:04:28;;;;;;;15.20;5.70;;;;;;;21.79;68.60;98555.28;232944;214;137649;-64
2023/09/21 09:09:32;;;;;;;15.80;5.40;;;;;;;21.85;68.28;98562.52;235058;214;145534;-64
2023/09/21 09:14:41;;;;;;;9.70;5.10;;;;;;;21.93;68.08;98558.57;234973;214;138737;-64
2023/09/21 09:19:47;;;;;;;10.50;5.30;;;;;;;22.04;67.47;98551.39;235028;214;137643;-62
2023/09/21 09:24:51;;;;;;;11.50;5.40;;;;;;;22.15;67.23;98551.77;234852;214;145722;-62
2023/09/21 09:29:57;;;;;;;16.00;5.10;;;;;;;22.24;67.03;98546.52;235021;214;140526;-61
2023/09/21 09:35:09;;;;;;;16.10;6.60;;;;;;;22.41;66.86;98548.11;234835;214;137978;-61
2023/09/21 09:40:14;;;;;;;16.20;5.10;;;;;;;22.67;66.28;98538.73;234791;214;146666;-59
2023/09/21 09:45:21;;;;;;;16.90;4.80;;;;;;;22.88;65.28;98537.05;234883;214;139176;-62
2023/09/21 09:50:25;;;;;;;26.30;17.60;;;;;;;23.05;64.88;98531.38;235017;214;137539;-59
2023/09/21 09:55:32;;;;;;;18.00;5.30;;;;;;;23.26;64.34;98528.52;235111;214;145792;-61
2023/09/21 10:00:39;;;;;;;13.80;5.60;;;;;;;23.54;64.46;98526.86;235000;214;139489;-59
2023/09/21 10:09:27;;;;;;;47.20;35.40;;;;;;;23.95;63.18;98518.29;231401;224;723798;-59
2023/09/21 10:14:36;;;;;;;17.90;7.30;;;;;;;24.17;62.29;98516.03;232997;216;137494;-62
2023/09/21 10:19:43;;;;;;;12.90;5.50;;;;;;;24.34;62.01;98506.41;232915;215;144305;-58
2023/09/21 10:24:58;;;;;;;7.80;2.90;;;;;;;24.53;59.78;98496.41;232680;213;139013;-59
2023/09/21 10:30:09;;;;;;;9.10;5.40;;;;;;;24.65;59.59;98489.96;232632;213;139611;-61
2023/09/21 10:35:21;;;;;;;6.50;3.30;;;;;;;24.80;58.75;98489.10;232643;213;145546;-60
2023/09/21 10:40:26;;;;;;;11.30;3.50;;;;;;;24.88;58.66;98486.17;232603;213;141736;-60
2023/09/21 10:45:55;;;;;;;130.10;98.70;;;;;;;24.96;58.55;98482.76;232589;213;136958;-61
2023/09/21 10:51:03;;;;;;;14.40;6.40;;;;;;;25.10;58.15;98470.98;232712;213;143742;-59
2023/09/21 10:56:07;;;;;;;21.90;6.40;;;;;;;25.17;57.64;98454.98;232748;213;138785;-60
2023/09/21 11:01:12;;;;;;;11.30;4.00;;;;;;;25.03;57.52;98450.16;232631;214;137435;-61
2023/09/21 11:06:19;;;;;;;5.30;2.50;;;;;;;25.02;57.46;98445.67;232707;214;147589;-61
2023/09/21 11:11:25;;;;;;;6.00;2.50;;;;;;;25.21;56.66;98430.53;232648;214;139515;-61
2023/09/21 11:16:31;;;;;;;4.20;1.90;;;;;;;25.39;53.89;98422.88;232609;213;137578;-65
2023/09/21 11:21:38;;;;;;;5.50;2.00;;;;;;;25.56;54.11;98413.70;232663;214;145929;-60
2023/09/21 11:26:49;;;;;;;6.20;2.30;;;;;;;25.65;52.10;98404.44;232792;214;139794;-61
2023/09/21 11:31:55;;;;;;;4.20;1.70;;;;;;;25.65;51.83;98397.52;232768;214;137525;-60
2023/09/21 11:37:01;;;;;;;13.40;5.80;;;;;;;25.85;51.99;98387.05;232651;214;147103;-61
2023/09/21 11:42:10;;;;;;;8.10;2.30;;;;;;;25.92;50.76;98386.13;232626;214;139487;-60
2023/09/21 11:47:16;;;;;;;3.80;1.60;;;;;;;26.06;50.28;98381.67;232698;214;137901;-61
2023/09/21 11:52:23;;;;;;;2.90;1.30;;;;;;;26.20;47.74;98375.03;232730;214;145764;-58
2023/09/21 11:57:26;;;;;;;21.40;12.90;;;;;;;26.37;48.54;98365.98;232612;214;139078;-62
2023/09/21 12:02:32;;;;;;;5.60;2.20;;;;;;;26.57;48.27;98354.49;232758;214;137702;-62
2023/09/21 12:07:37;;;;;;;6.10;1.80;;;;;;;26.73;47.55;98344.66;232712;213;145773;-64
2023/09/21 12:12:42;;;;;;;4.20;1.40;;;;;;;26.85;47.38;98335.28;232641;214;138667;-63
2023/09/21 12:17:48;;;;;;;2.70;1.20;;;;;;;26.90;45.99;98328.58;232690;214;137313;-61
2023/09/21 12:22:54;;;;;;;3.60;1.60;;;;;;;26.87;45.32;98324.25;232615;213;145722;-63
2023/09/21 12:27:59;;;;;;;6.30;2.20;;;;;;;26.85;46.49;98318.60;232679;214;140406;-62
2023/09/21 12:33:03;;;;;;;5.10;1.60;;;;;;;26.83;46.05;98317.19;232788;213;136513;-61
2023/09/21 12:38:08;;;;;;;5.40;1.50;;;;;;;26.87;45.74;98306.11;232675;214;146209;-65
2023/09/21 12:43:12;;;;;;;2.60;1.30;;;;;;;26.89;45.90;98305.77;232634;213;138916;-62
2023/09/21 12:48:17;;;;;;;;;;;;;;;26.98;46.03;98297.56;232672;214;137539;-64
2023/09/21 12:53:22;;;;;;;19.60;15.30;;;;;;;27.06;45.94;98287.95;232734;214;146237;-60
2023/09/21 12:58:25;;;;;;;4.10;1.60;;;;;;;27.11;45.84;98285.95;232691;213;138813;-62
2023/09/21 13:03:33;;;;;;;10.40;7.40;;;;;;;27.13;44.96;98279.48;232501;214;137637;-59
2023/09/21 13:08:40;;;;;;;5.90;2.20;;;;;;;27.14;45.10;98278.92;232796;214;145787;-62
2023/09/21 13:13:46;;;;;;;4.70;1.60;;;;;;;27.25;44.94;98275.90;232649;214;138629;-61
2023/09/21 13:18:51;;;;;;;3.80;1.30;;;;;;;27.33;44.55;98271.05;232576;212;136473;-61
2023/09/21 13:23:56;;;;;;;4.00;2.40;;;;;;;27.52;44.66;98260.57;232529;213;146419;-59
2023/09/21 13:29:03;;;;;;;5.80;3.20;;;;;;;27.77;44.18;98250.90;232558;212;139035;-60
2023/09/21 13:34:08;;;;;;;5.70;1.40;;;;;;;27.91;43.15;98245.51;232767;212;137110;-67
2023/09/21 13:39:14;;;;;;;6.70;1.90;;;;;;;28.01;43.45;98241.75;232735;212;147370;-63
2023/09/21 13:44:21;;;;;;;9.20;1.70;;;;;;;28.07;43.02;98232.41;232805;212;138703;-63
2023/09/21 13:49:26;;;;;;;3.80;1.40;;;;;;;27.79;42.64;98222.08;232763;212;137607;-60
2023/09/21 13:54:31;;;;;;;3.10;1.60;;;;;;;27.11;43.31;98215.20;232696;213;145718;-62
2023/09/21 13:59:35;;;;;;;6.70;1.70;;;;;;;26.81;43.94;98209.45;232797;212;138817;-63
2023/09/21 14:04:41;;;;;;;5.30;1.50;;;;;;;26.58;44.66;98212.87;232887;212;136795;-63
2023/09/21 14:09:45;;;;;;;4.30;1.60;;;;;;;26.29;44.75;98213.42;232822;212;146037;-62
2023/09/21 15:10:16;;;;;;;4.50;1.90;;;;;;;25.05;45.19;98211.10;231522;223;725553;-63
2023/09/21 15:15:23;;;;;;;4.10;1.50;;;;;;;24.98;45.34;98206.44;232984;217;138284;-61
2023/09/21 15:20:30;;;;;;;3.10;1.50;;;;;;;24.88;45.30;98201.06;232792;217;143608;-63
2023/09/21 15:25:33;;;;;;;;;;;;;;;24.86;45.50;98203.24;232770;217;140980;-63
2023/09/21 15:30:40;;;;;;;4.10;1.90;;;;;;;24.84;45.74;98202.61;232822;217;129652;-62
2023/09/21 15:35:46;;;;;;;5.70;1.60;;;;;;;24.87;46.06;98192.61;232901;217;144351;-62
2023/09/21 15:40:51;;;;;;;2.80;1.70;;;;;;;24.93;46.44;98188.80;232815;217;138928;-61
2023/09/21 15:45:56;;;;;;;5.10;1.70;;;;;;;24.95;46.78;98180.84;232937;216;139400;-62
2023/09/21 15:51:00;;;;;;;2.60;1.50;;;;;;;24.89;47.18;98186.87;232918;217;143698;-61
2023/09/21 15:56:04;;;;;;;2.50;1.60;;;;;;;24.73;47.58;98182.73;232798;214;138701;-59
2023/09/21 16:01:09;;;;;;;5.80;2.20;;;;;;;24.64;48.02;98176.29;232799;214;136867;-57
2023/09/21 16:06:13;;;;;;;4.60;1.70;;;;;;;24.53;48.19;98181.92;232813;214;146428;-62
2023/09/21 16:11:19;;;;;;;3.80;1.80;;;;;;;24.45;48.14;98194.06;232754;215;138647;-63
2023/09/21 16:16:25;;;;;;;4.80;2.00;;;;;;;24.40;48.24;98194.99;232775;215;136578;-58
2023/09/21 16:21:29;;;;;;;13.10;9.40;;;;;;;24.37;48.09;98201.55;232947;215;147574;-60
2023/09/21 16:26:35;;;;;;;30.70;25.60;;;;;;;24.35;48.10;98208.44;232808;215;139294;-61
2023/09/21 16:31:41;;;;;;;6.40;2.30;;;;;;;24.30;48.37;98204.86;232813;215;138504;-59
2023/09/21 16:36:46;;;;;;;7.90;2.40;;;;;;;24.26;48.28;98198.53;232872;215;145618;-65
2023/09/21 16:41:52;;;;;;;4.90;3.30;;;;;;;24.17;48.47;98189.88;232806;215;139430;-60
2023/09/21 16:46:57;;;;;;;8.40;4.90;;;;;;;24.15;48.89;98179.54;232885;215;137346;-60
2023/09/21 16:52:04;;;;;;;4.30;2.20;;;;;;;24.09;49.13;98168.17;232923;215;148432;-62
2023/09/21 16:57:08;;;;;;;5.80;2.20;;;;;;;23.97;49.71;98171.34;232757;215;138843;-58
2023/09/21 17:02:11;;;;;;;5.30;3.00;;;;;;;23.89;49.84;98178.53;232814;215;137346;-59
2023/09/21 17:07:15;;;;;;;9.20;4.20;;;;;;;23.79;49.45;98177.86;232884;215;147242;-61
2023/09/21 17:12:20;;;;;;;25.00;20.20;;;;;;;23.68;50.22;98180.55;232749;215;138841;-61
2023/09/21 17:17:26;;;;;;;20.70;12.70;;;;;;;23.59;50.42;98178.09;232912;215;137451;-58
2023/09/21 17:22:31;;;;;;;17.70;7.50;;;;;;;23.54;50.53;98170.95;232889;215;146044;-61
2023/09/21 17:27:35;;;;;;;5.70;3.50;;;;;;;23.43;51.34;98168.75;234629;215;141877;-66
2023/09/21 17:32:38;;;;;;;8.90;4.80;;;;;;;23.35;50.86;98172.91;234523;215;136622;-63
2023/09/21 17:37:42;;;;;;;24.70;18.60;;;;;;;23.28;51.48;98175.30;234532;215;146466;-63
2023/09/21 17:42:46;;;;;;;6.10;3.20;;;;;;;23.24;51.80;98178.33;234533;215;138819;-62
2023/09/21 17:47:49;;;;;;;21.60;11.60;;;;;;;23.19;52.15;98186.33;234532;215;136844;-63
2023/09/21 17:52:52;;;;;;;12.70;6.00;;;;;;;23.14;53.27;98185.37;234576;215;145519;-64
2023/09/21 17:57:56;;;;;;;42.90;38.40;;;;;;;23.05;53.25;98185.01;234674;215;138817;-61
2023/09/21 18:08:52;;;;;;;54.50;43.70;;;;;;;22.97;52.83;98191.17;231339;224;723795;-59
2023/09/21 18:13:57;;;;;;;13.20;5.20;;;;;;;22.86;52.41;98188.44;232925;216;137098;-58
2023/09/21 18:19:03;;;;;;;7.00;3.20;;;;;;;22.80;52.21;98185.11;232942;216;145298;-57
2023/09/21 18:24:09;;;;;;;5.00;3.00;;;;;;;22.71;52.02;98187.66;232931;215;139098;-59
2023/09/21 18:29:13;;;;;;;5.50;2.90;;;;;;;22.65;51.98;98186.06;232834;215;137224;-58
2023/09/21 18:34:18;;;;;;;5.00;3.20;;;;;;;22.60;52.22;98188.60;232964;215;143732;-58
2023/09/21 18:39:24;;;;;;;6.60;4.00;;;;;;;22.47;52.68;98191.30;232970;215;141373;-56
2023/09/21 18:44:29;;;;;;;10.70;4.90;;;;;;;22.32;53.01;98185.71;232938;216;136995;-59
2023/09/21 18:49:36;;;;;;;6.30;3.60;;;;;;;22.24;53.43;98186.36;232912;214;144780;-59
2023/09/21 18:54:42;;;;;;;;;;;;;;;22.18;53.54;98186.00;232888;216;139616;-58
2023/09/21 18:59:49;;;;;;;7.60;3.40;;;;;;;22.08;54.09;98183.27;233037;216;131067;-59
2023/09/21 19:04:56;;;;;;;4.90;3.10;;;;;;;21.98;54.28;98185.34;232906;216;147101;-56
2023/09/21 19:10:01;;;;;;;6.30;3.60;;;;;;;21.89;54.94;98181.31;232911;215;141489;-58
2023/09/21 19:15:08;;;;;;;9.20;4.10;;;;;;;21.76;55.99;98187.52;232797;215;136755;-61
2023/09/21 19:20:12;;;;;;;9.30;3.90;;;;;;;21.64;56.63;98189.75;232951;215;145693;-59
2023/09/21 19:25:16;;;;;;;8.50;3.60;;;;;;;21.53;57.09;98187.98;232962;214;140508;-56
2023/09/21 19:30:21;;;;;;;10.40;4.00;;;;;;;21.44;57.94;98195.06;233034;216;137828;-59
2023/09/21 19:35:26;;;;;;;12.30;4.40;;;;;;;21.36;58.34;98195.46;232993;216;145785;-57
2023/09/21 19:40:30;;;;;;;10.20;4.40;;;;;;;21.32;58.66;98188.89;233081;216;140450;-59
2023/09/21 19:45:36;;;;;;;16.10;5.00;;;;;;;21.28;59.06;98185.90;233019;216;137254;-60
2023/09/21 19:50:42;;;;;;;12.50;4.90;;;;;;;21.26;59.31;98183.25;232982;216;145524;-59
2023/09/21 19:55:46;;;;;;;13.80;5.80;;;;;;;21.25;59.15;98174.95;233006;216;139491;-59
2023/09/21 20:00:52;;;;;;;12.10;5.10;;;;;;;21.23;59.24;98166.88;233113;216;137880;-58
2023/09/21 20:05:58;;;;;;;11.40;5.50;;;;;;;21.24;59.22;98165.86;232933;216;146537;-58
2023/09/21 20:11:03;;;;;;;14.50;5.80;;;;;;;21.24;59.45;98163.11;232936;216;140369;-58
2023/09/21 20:16:15;;;;;;;14.00;5.30;;;;;;;21.22;59.35;98154.71;233238;216;138180;-59
2023/09/21 20:21:22;;;;;;;10.60;5.40;;;;;;;21.17;59.47;98152.77;232902;216;147079;-60
2023/09/21 20:26:27;;;;;;;15.50;6.30;;;;;;;21.14;59.47;98145.20;233023;216;139266;-56
2023/09/21 20:31:34;;;;;;;;;;;;;;;21.09;59.59;98138.84;233085;216;136894;-60
2023/09/21 20:36:39;;;;;;;11.10;5.40;;;;;;;20.98;59.71;98134.85;233137;216;147341;-63
2023/09/21 20:41:45;;;;;;;14.70;5.40;;;;;;;20.87;60.12;98136.91;232945;216;139428;-60
2023/09/21 20:46:50;;;;;;;11.70;5.50;;;;;;;20.76;60.37;98141.34;233119;216;137906;-60
2023/09/21 20:51:54;;;;;;;12.80;5.50;;;;;;;20.66;61.02;98139.80;233062;216;146374;-56
2023/09/21 20:56:59;;;;;;;17.00;5.60;;;;;;;20.55;61.85;98143.81;232957;216;139100;-59
2023/09/21 21:02:04;;;;;;;11.60;6.00;;;;;;;20.47;62.23;98140.05;233079;216;137872;-62
2023/09/21 21:07:09;;;;;;;13.90;5.60;;;;;;;20.39;62.52;98138.82;233046;216;145703;-60
2023/09/21 21:12:14;;;;;;;12.90;5.70;;;;;;;20.32;62.57;98141.23;232885;216;142428;-59
2023/09/21 21:17:19;;;;;;;13.40;5.60;;;;;;;20.25;62.53;98138.41;232905;216;137785;-59
2023/09/21 21:22:24;;;;;;;10.30;4.80;;;;;;;20.17;62.98;98126.73;233105;216;146705;-54
2023/09/21 21:27:28;;;;;;;8.20;4.30;;;;;;;20.10;63.23;98118.58;232971;216;138834;-59
2023/09/21 21:32:34;;;;;;;6.80;3.50;;;;;;;20.05;63.56;98116.24;233053;216;136822;-60
2023/09/21 21:37:42;;;;;;;9.10;3.30;;;;;;;20.04;63.36;98110.57;232934;216;147815;-58
2023/09/21 21:42:46;;;;;;;8.10;3.70;;;;;;;20.06;63.46;98103.73;232923;216;139435;-58
2023/09/21 21:47:51;;;;;;;7.50;3.80;;;;;;;20.03;63.58;98106.70;232987;216;137807;-59
2023/09/21 21:52:55;;;;;;;7.30;3.50;;;;;;;19.99;63.81;98099.26;233107;217;147598;-56
2023/09/21 21:58:04;;;;;;;5.90;3.30;;;;;;;19.92;64.08;98100.48;232885;216;142195;-59
2023/09/21 22:03:10;;;;;;;9.30;3.40;;;;;;;19.85;64.44;98087.14;232989;217;138240;-58
2023/09/21 22:08:15;;;;;;;;;;;;;;;19.75;64.83;98083.86;232947;216;148300;-59
2023/09/21 22:13:19;;;;;;;11.40;3.90;;;;;;;19.67;65.29;98080.00;234491;216;138998;-60
2023/09/21 22:18:22;;;;;;;7.30;3.30;;;;;;;19.59;65.71;98072.42;234418;216;137319;-60
2023/09/21 22:23:28;;;;;;;8.00;4.20;;;;;;;19.47;65.70;98074.84;234418;216;145612;-60
2023/09/21 22:28:31;;;;;;;7.00;3.50;;;;;;;19.41;65.69;98067.64;234441;216;138879;-60
2023/09/21 22:33:35;;;;;;;8.40;3.80;;;;;;;19.41;66.00;98065.36;234411;216;138628;-61
2023/09/21 22:38:39;;;;;;;8.70;3.50;;;;;;;19.40;66.25;98074.60;234487;216;145650;-58
2023/09/21 22:43:42;;;;;;;8.80;4.40;;;;;;;19.41;66.57;98072.33;234484;217;140117;-59
2023/09/21 22:48:46;;;;;;;7.70;4.30;;;;;;;19.47;66.73;98067.50;234452;215;136449;-60
2023/09/21 22:53:49;;;;;;;6.60;3.90;;;;;;;19.47;66.57;98063.98;234682;215;147384;-60
2023/09/21 22:58:53;;;;;;;7.40;4.00;;;;;;;19.42;66.60;98053.01;234760;215;141101;-60
2023/09/21 23:09:33;;;;;;;9.20;3.60;;;;;;;19.38;66.75;98053.73;231527;223;723478;-60
2023/09/21 23:14:41;;;;;;;5.60;3.30;;;;;;;19.34;66.83;98048.25;232886;215;136703;-57
2023/09/21 23:19:49;;;;;;;7.70;3.40;;;;;;;19.33;66.77;98045.34;232886;215;143942;-58
2023/09/21 23:24:54;;;;;;;5.30;2.80;;;;;;;19.31;66.78;98050.05;232748;215;139526;-61
2023/09/21 23:29:58;;;;;;;7.10;3.30;;;;;;;19.29;67.35;98048.87;232826;215;137214;-60
2023/09/21 23:35:06;;;;;;;7.70;3.10;;;;;;;19.27;67.55;98043.65;232973;215;145145;-57
2023/09/21 23:40:10;;;;;;;11.00;3.00;;;;;;;19.25;67.45;98049.98;232812;215;139083;-58
2023/09/21 23:45:18;;;;;;;6.90;2.80;;;;;;;19.23;67.69;98038.34;232818;214;137617;-59
2023/09/21 23:50:23;;;;;;;5.80;2.90;;;;;;;19.21;67.45;98037.33;232890;214;144543;-59
2023/09/21 23:55:28;;;;;;;;;;;;;;;19.21;67.43;98037.33;232874;215;138707;-59
